createdAt,value
2022-09-23T00:02:13.485Z,99.90
2022-09-23T00:04:42.352Z,99.90
2022-09-23T00:07:10.809Z,99.90
2022-09-23T00:09:38.973Z,99.90
2022-09-23T00:12:09.110Z,99.90
2022-09-23T00:14:39.846Z,99.90
2022-09-23T00:17:08.179Z,99.90
2022-09-23T00:19:40.493Z,99.90
2022-09-23T00:22:08.982Z,99.90
2022-09-23T00:24:37.318Z,99.90
2022-09-23T00:27:06.041Z,99.90
2022-09-23T00:29:34.460Z,99.90
2022-09-23T00:32:03.210Z,99.90
2022-09-23T00:34:31.467Z,99.90
2022-09-23T00:37:01.177Z,99.90
2022-09-23T00:39:29.540Z,99.90
2022-09-23T00:41:58.037Z,99.90
2022-09-23T00:44:57.239Z,99.90
2022-09-23T00:47:34.402Z,99.90
2022-09-23T00:50:08.999Z,99.90
2022-09-23T00:52:39.278Z,99.90
2022-09-23T00:55:11.255Z,99.90
2022-09-23T00:57:41.507Z,99.90
2022-09-23T01:00:11.431Z,99.90
2022-09-23T01:02:39.739Z,99.90
2022-09-23T01:05:09.465Z,99.90
2022-09-23T01:07:39.609Z,99.90
2022-09-23T01:10:10.492Z,99.90
2022-09-23T01:13:04.583Z,99.90
2022-09-23T01:15:42.587Z,99.90
2022-09-23T01:18:18.702Z,99.90
2022-09-23T01:21:09.758Z,99.90
2022-09-23T01:24:09.693Z,99.90
2022-09-23T01:27:01.827Z,99.90
2022-09-23T01:30:14.045Z,99.90
2022-09-23T01:33:05.894Z,99.90
2022-09-23T01:35:47.745Z,99.90
2022-09-23T01:38:32.402Z,99.90
2022-09-23T01:41:06.901Z,99.90
2022-09-23T01:43:42.088Z,99.90
2022-09-23T01:46:17.868Z,99.90
2022-09-23T01:48:52.998Z,99.90
2022-09-23T01:51:26.159Z,99.90
2022-09-23T01:53:59.926Z,99.90
2022-09-23T01:56:33.141Z,99.90
2022-09-23T01:59:09.367Z,99.90
2022-09-23T02:01:42.796Z,99.90
2022-09-23T02:04:18.897Z,99.90
2022-09-23T02:06:53.225Z,99.90
2022-09-23T02:09:26.129Z,99.90
2022-09-23T02:12:01.261Z,99.90
2022-09-23T02:14:34.310Z,99.90
2022-09-23T02:17:08.564Z,99.90
2022-09-23T02:19:43.699Z,99.90
2022-09-23T02:22:17.364Z,99.90
2022-09-23T02:24:46.127Z,99.90
2022-09-23T02:27:21.568Z,99.90
2022-09-23T02:29:57.049Z,99.90
2022-09-23T02:32:32.054Z,99.90
2022-09-23T02:35:10.486Z,99.90
2022-09-23T02:37:47.652Z,99.90
2022-09-23T02:40:23.756Z,99.90
2022-09-23T02:43:02.803Z,99.90
2022-09-23T02:45:31.328Z,99.90
2022-09-23T02:48:06.636Z,99.90
2022-09-23T02:50:36.551Z,99.90
2022-09-23T02:53:04.939Z,99.90
2022-09-23T02:55:33.530Z,99.90
2022-09-23T02:58:03.425Z,99.90
2022-09-23T03:00:42.389Z,99.90
2022-09-23T03:03:28.279Z,99.90
2022-09-23T03:06:00.935Z,99.90
2022-09-23T03:08:43.016Z,99.90
2022-09-23T03:11:13.758Z,99.90
2022-09-23T03:13:56.677Z,99.90
2022-09-23T03:16:35.701Z,99.90
2022-09-23T03:19:18.221Z,99.90
2022-09-23T03:21:52.830Z,99.90
2022-09-23T03:24:23.200Z,99.90
2022-09-23T03:26:53.920Z,99.90
2022-09-23T03:29:23.979Z,99.90
2022-09-23T03:31:52.331Z,99.90
2022-09-23T03:34:25.458Z,99.90
2022-09-23T03:37:01.361Z,99.90
2022-09-23T03:39:35.970Z,99.90
2022-09-23T03:42:07.992Z,99.90
2022-09-23T03:44:39.171Z,99.90
2022-09-23T03:47:08.022Z,99.90
2022-09-23T03:49:39.310Z,99.90
2022-09-23T03:52:09.101Z,99.90
2022-09-23T03:54:37.328Z,99.90
2022-09-23T03:57:05.665Z,99.90
2022-09-23T03:59:34.001Z,99.90
2022-09-23T04:02:02.705Z,99.90
2022-09-23T04:04:32.540Z,99.90
2022-09-23T04:07:01.006Z,99.90
2022-09-23T04:09:30.930Z,99.90
2022-09-23T04:11:59.170Z,99.90
2022-09-23T04:14:27.274Z,99.90
2022-09-23T04:16:55.478Z,99.90
2022-09-23T04:19:23.748Z,99.90
2022-09-23T04:21:52.116Z,99.90
2022-09-23T04:24:20.549Z,99.90
2022-09-23T04:26:53.406Z,99.90
2022-09-23T04:29:21.716Z,99.90
2022-09-23T04:31:50.349Z,99.90
2022-09-23T04:34:19.385Z,99.90
2022-09-23T04:36:49.096Z,99.90
2022-09-23T04:39:18.192Z,99.90
2022-09-23T04:41:47.475Z,99.90
2022-09-23T04:44:17.457Z,99.90
2022-09-23T04:46:47.356Z,99.90
2022-09-23T04:49:16.424Z,99.90
2022-09-23T04:51:45.066Z,99.90
2022-09-23T04:54:14.686Z,99.90
2022-09-23T04:56:43.084Z,99.90
2022-09-23T04:59:11.400Z,99.90
2022-09-23T05:01:41.710Z,99.90
2022-09-23T05:04:14.097Z,99.90
2022-09-23T05:06:45.279Z,99.90
2022-09-23T05:09:16.680Z,99.90
2022-09-23T05:11:45.594Z,99.90
2022-09-23T05:14:14.300Z,99.90
2022-09-23T05:16:43.965Z,99.90
2022-09-23T05:19:13.684Z,99.90
2022-09-23T05:21:42.216Z,99.90
2022-09-23T05:24:10.856Z,99.90
2022-09-23T05:26:39.485Z,99.90
2022-09-23T05:29:07.961Z,99.90
2022-09-23T05:31:36.907Z,99.90
2022-09-23T05:34:07.369Z,99.90
2022-09-23T05:36:38.994Z,99.90
2022-09-23T05:39:09.125Z,99.90
2022-09-23T05:41:38.367Z,99.90
2022-09-23T05:44:06.659Z,99.90
2022-09-23T05:46:35.395Z,99.90
2022-09-23T05:49:04.431Z,99.90
2022-09-23T05:51:35.789Z,99.90
2022-09-23T05:54:05.540Z,99.90
2022-09-23T05:56:35.239Z,99.90
2022-09-23T05:59:04.927Z,99.90
2022-09-23T06:01:35.425Z,99.90
2022-09-23T06:04:05.955Z,99.90
2022-09-23T06:06:38.939Z,99.90
2022-09-23T06:09:07.983Z,99.90
2022-09-23T06:11:37.124Z,99.90
2022-09-23T06:14:05.606Z,99.90
2022-09-23T06:16:35.282Z,99.90
2022-09-23T06:19:06.574Z,99.90
2022-09-23T06:21:38.363Z,99.90
2022-09-23T06:24:07.332Z,99.90
2022-09-23T06:26:36.437Z,99.90
2022-09-23T06:29:06.251Z,99.90
2022-09-23T06:31:34.474Z,99.90
2022-09-23T06:34:10.378Z,99.90
2022-09-23T06:36:44.533Z,99.90
2022-09-23T06:39:14.324Z,99.90
2022-09-23T06:41:42.458Z,99.90
2022-09-23T06:44:10.761Z,99.90
2022-09-23T06:46:39.126Z,99.90
2022-09-23T06:49:07.395Z,99.90
2022-09-23T06:51:35.822Z,99.90
2022-09-23T06:54:05.877Z,99.90
2022-09-23T06:56:38.765Z,99.90
2022-09-23T06:59:08.368Z,99.90
2022-09-23T07:01:36.645Z,99.90
2022-09-23T07:04:05.059Z,99.90
2022-09-23T07:06:33.376Z,99.90
2022-09-23T07:09:01.981Z,99.90
2022-09-23T07:11:31.746Z,99.90
2022-09-23T07:13:59.955Z,99.90
2022-09-23T07:16:28.239Z,99.90
2022-09-23T07:18:56.613Z,99.90
2022-09-23T07:21:24.791Z,99.90
2022-09-23T07:23:53.613Z,99.90
2022-09-23T07:26:23.047Z,99.90
2022-09-23T07:28:56.997Z,99.90
2022-09-23T07:31:37.395Z,99.90
2022-09-23T07:34:08.407Z,99.90
2022-09-23T07:36:37.883Z,99.90
2022-09-23T07:39:06.046Z,99.90
2022-09-23T07:41:36.035Z,99.90
2022-09-23T07:44:06.540Z,99.90
2022-09-23T07:46:36.473Z,99.90
2022-09-23T07:49:05.973Z,99.90
2022-09-23T07:51:37.061Z,99.90
2022-09-23T07:54:08.862Z,99.90
2022-09-23T07:56:38.588Z,99.90
2022-09-23T07:59:09.781Z,99.90
2022-09-23T08:01:40.247Z,99.90
2022-09-23T08:04:12.020Z,99.90
2022-09-23T08:06:43.342Z,99.90
2022-09-23T08:09:11.707Z,99.90
2022-09-23T08:11:42.243Z,99.90
2022-09-23T08:14:13.677Z,99.90
2022-09-23T08:16:42.429Z,99.90
2022-09-23T08:19:12.092Z,99.90
2022-09-23T08:21:41.113Z,99.90
2022-09-23T08:24:10.319Z,99.90
2022-09-23T08:26:38.587Z,99.90
2022-09-23T08:29:09.861Z,99.90
2022-09-23T08:31:39.503Z,99.90
2022-09-23T08:34:07.829Z,99.90
2022-09-23T08:36:36.936Z,99.90
2022-09-23T08:39:08.002Z,99.90
2022-09-23T08:41:43.413Z,99.90
2022-09-23T08:44:17.315Z,99.90
2022-09-23T08:47:12.097Z,99.90
2022-09-23T08:49:54.201Z,99.90
2022-09-23T08:52:39.567Z,99.90
2022-09-23T08:55:13.070Z,99.90
2022-09-23T08:58:23.843Z,99.90
2022-09-23T09:00:57.259Z,99.90
2022-09-23T09:03:35.179Z,99.90
2022-09-23T09:06:04.075Z,99.90
2022-09-23T09:08:36.589Z,99.90
2022-09-23T09:11:15.747Z,99.90
2022-09-23T09:13:51.840Z,99.90
2022-09-23T09:16:58.946Z,98.20
2022-09-23T09:19:56.577Z,97.00
2022-09-23T09:22:38.345Z,97.50
2022-09-23T09:25:19.761Z,94.90
2022-09-23T09:27:49.388Z,92.60
2022-09-23T09:30:18.879Z,93.90
2022-09-23T09:32:49.602Z,93.00
2022-09-23T09:35:29.158Z,91.80
2022-09-23T09:37:57.552Z,91.70
2022-09-23T09:40:25.828Z,91.30
2022-09-23T09:42:54.293Z,90.80
2022-09-23T09:45:33.540Z,92.00
2022-09-23T09:48:08.175Z,90.00
2022-09-23T09:50:47.309Z,90.20
2022-09-23T09:53:25.595Z,92.20
2022-09-23T09:56:06.087Z,92.00
2022-09-23T09:58:41.113Z,91.70
2022-09-23T10:01:09.791Z,91.20
2022-09-23T10:03:44.399Z,92.10
2022-09-23T10:06:23.665Z,93.20
2022-09-23T10:09:10.865Z,91.60
2022-09-23T10:11:40.737Z,91.40
2022-09-23T10:14:14.405Z,92.60
2022-09-23T10:16:42.757Z,92.60
2022-09-23T10:19:23.047Z,92.50
2022-09-23T10:21:59.917Z,91.60
2022-09-23T10:24:31.104Z,90.50
2022-09-23T10:27:02.857Z,90.40
2022-09-23T10:29:33.277Z,91.00
2022-09-23T10:32:26.679Z,91.30
2022-09-23T10:34:58.285Z,91.20
2022-09-23T10:37:37.555Z,91.50
2022-09-23T10:40:37.269Z,88.80
2022-09-23T10:43:52.277Z,91.00
2022-09-23T10:46:42.400Z,90.70
2022-09-23T10:49:38.098Z,88.00
2022-09-23T10:52:24.054Z,88.60
2022-09-23T10:55:06.168Z,87.90
2022-09-23T10:57:49.526Z,82.20
2022-09-23T11:00:23.562Z,85.20
2022-09-23T11:03:38.463Z,89.00
2022-09-23T11:06:16.085Z,87.20
2022-09-23T11:08:57.974Z,88.10
2022-09-23T11:11:38.843Z,88.00
2022-09-23T11:14:23.649Z,84.40
2022-09-23T11:17:13.566Z,85.80
2022-09-23T11:20:08.552Z,83.00
2022-09-23T11:22:54.516Z,81.10
2022-09-23T11:25:47.293Z,81.20
2022-09-23T11:28:35.988Z,80.90
2022-09-23T11:31:14.737Z,81.30
2022-09-23T11:34:04.609Z,82.20
2022-09-23T11:36:40.952Z,78.90
2022-09-23T11:39:13.982Z,80.00
2022-09-23T11:41:48.218Z,82.00
2022-09-23T11:44:24.805Z,82.10
2022-09-23T11:46:57.276Z,80.60
2022-09-23T11:49:32.214Z,80.70
2022-09-23T11:52:09.774Z,80.50
2022-09-23T11:54:45.036Z,78.50
2022-09-23T11:57:23.391Z,78.90
2022-09-23T12:00:01.221Z,76.70
2022-09-23T12:02:34.800Z,79.50
2022-09-23T12:05:08.096Z,77.00
2022-09-23T12:07:48.131Z,75.80
2022-09-23T12:10:20.797Z,78.00
2022-09-23T12:13:19.052Z,74.10
2022-09-23T12:16:06.756Z,76.20
2022-09-23T12:18:52.927Z,75.70
2022-09-23T12:21:52.626Z,75.20
2022-09-23T12:24:43.288Z,76.50
2022-09-23T12:27:24.480Z,75.70
2022-09-23T12:29:57.308Z,77.00
2022-09-23T12:32:27.774Z,74.40
2022-09-23T12:34:56.797Z,74.70
2022-09-23T12:37:31.389Z,75.70
2022-09-23T12:40:11.310Z,73.70
2022-09-23T12:42:46.104Z,74.30
2022-09-23T12:45:34.716Z,74.80
2022-09-23T12:48:06.337Z,75.70
2022-09-23T12:50:59.169Z,74.30
2022-09-23T12:53:59.790Z,73.90
2022-09-23T12:56:43.971Z,70.20
2022-09-23T12:59:25.331Z,69.40
2022-09-23T13:01:56.873Z,73.90
2022-09-23T13:05:02.310Z,74.50
2022-09-23T13:07:34.278Z,71.30
2022-09-23T13:10:13.792Z,71.20
2022-09-23T13:12:44.596Z,68.70
2022-09-23T13:15:21.254Z,68.50
2022-09-23T13:17:49.545Z,72.20
2022-09-23T13:20:38.850Z,71.50
2022-09-23T13:23:21.605Z,75.30
2022-09-23T13:25:51.599Z,73.50
2022-09-23T13:28:28.541Z,74.90
2022-09-23T13:30:57.041Z,73.20
2022-09-23T13:33:34.320Z,72.40
2022-09-23T13:36:06.961Z,72.80
2022-09-23T13:38:35.660Z,70.80
2022-09-23T13:41:06.385Z,69.90
2022-09-23T13:43:41.460Z,69.60
2022-09-23T13:46:13.588Z,73.00
2022-09-23T13:48:44.636Z,72.40
2022-09-23T13:51:24.948Z,71.30
2022-09-23T13:53:55.429Z,69.10
2022-09-23T13:56:24.763Z,67.30
2022-09-23T13:58:53.540Z,68.90
2022-09-23T14:01:32.454Z,70.20
2022-09-23T14:04:00.703Z,70.30
2022-09-23T14:06:31.900Z,70.90
2022-09-23T14:09:03.701Z,69.70
2022-09-23T14:11:35.390Z,69.20
2022-09-23T14:14:07.298Z,69.30
2022-09-23T14:16:39.757Z,71.00
2022-09-23T14:19:09.014Z,70.20
2022-09-23T14:21:39.930Z,69.90
2022-09-23T14:24:15.931Z,71.60
2022-09-23T14:26:47.514Z,71.10
2022-09-23T14:29:18.663Z,69.40
2022-09-23T14:31:57.175Z,71.90
2022-09-23T14:34:43.048Z,72.80
2022-09-23T14:37:46.173Z,72.50
2022-09-23T14:40:18.101Z,73.40
2022-09-23T14:42:51.525Z,74.70
2022-09-23T14:45:22.544Z,74.70
2022-09-23T14:47:54.988Z,73.80
2022-09-23T14:50:39.936Z,73.30
2022-09-23T14:53:38.295Z,74.90
2022-09-23T14:56:18.291Z,75.80
2022-09-23T14:58:55.182Z,75.10
2022-09-23T15:01:27.905Z,75.00
2022-09-23T15:03:58.489Z,76.20
2022-09-23T15:06:27.495Z,76.10
2022-09-23T15:08:57.690Z,75.90
2022-09-23T15:11:26.382Z,76.70
2022-09-23T15:13:54.760Z,75.60
2022-09-23T15:16:27.923Z,76.70
2022-09-23T15:18:58.708Z,74.80
2022-09-23T15:21:41.548Z,77.10
2022-09-23T15:24:39.734Z,77.00
2022-09-23T15:27:30.973Z,76.00
2022-09-23T15:30:15.399Z,77.90
2022-09-23T15:32:44.348Z,78.10
2022-09-23T15:35:18.776Z,78.90
2022-09-23T15:37:49.869Z,79.20
2022-09-23T15:40:23.833Z,79.90
2022-09-23T15:42:54.369Z,80.10
2022-09-23T15:45:27.987Z,81.50
2022-09-23T15:47:57.214Z,80.40
2022-09-23T15:50:25.440Z,79.50
2022-09-23T15:52:53.821Z,78.80
2022-09-23T15:55:24.218Z,81.00
2022-09-23T15:57:52.959Z,81.00
2022-09-23T16:00:21.721Z,82.40
2022-09-23T16:03:06.703Z,81.60
2022-09-23T16:05:38.467Z,80.90
2022-09-23T16:08:15.817Z,81.20
2022-09-23T16:11:02.920Z,81.10
2022-09-23T16:13:31.292Z,80.40
2022-09-23T16:15:59.517Z,82.70
2022-09-23T16:18:27.798Z,82.20
2022-09-23T16:20:56.433Z,83.00
2022-09-23T16:23:34.507Z,84.40
2022-09-23T16:26:07.893Z,83.30
2022-09-23T16:28:36.147Z,84.40
2022-09-23T16:31:04.833Z,84.70
2022-09-23T16:33:33.507Z,85.60
2022-09-23T16:36:29.470Z,84.10
2022-09-23T16:38:58.329Z,86.30
2022-09-23T16:41:35.250Z,85.10
2022-09-23T16:44:05.521Z,86.30
2022-09-23T16:46:34.483Z,86.40
2022-09-23T16:49:05.790Z,88.80
2022-09-23T16:51:38.421Z,87.00
2022-09-23T16:54:10.245Z,87.30
2022-09-23T16:56:44.430Z,88.00
2022-09-23T16:59:13.036Z,88.00
2022-09-23T17:01:58.683Z,87.90
2022-09-23T17:04:27.646Z,89.30
2022-09-23T17:06:56.539Z,89.70
2022-09-23T17:09:27.235Z,89.50
2022-09-23T17:12:06.204Z,87.90
2022-09-23T17:14:34.680Z,88.40
2022-09-23T17:17:02.800Z,90.10
2022-09-23T17:19:30.975Z,89.50
2022-09-23T17:21:59.102Z,89.80
2022-09-23T17:24:27.464Z,89.10
2022-09-23T17:26:57.111Z,90.00
2022-09-23T17:29:26.934Z,89.10
2022-09-23T17:34:24.159Z,89.00
2022-09-23T17:36:55.140Z,90.40
2022-09-23T17:39:23.336Z,90.70
2022-09-23T17:41:55.158Z,90.00
2022-09-23T17:44:24.893Z,90.70
2022-09-23T17:46:53.073Z,90.60
2022-09-23T17:49:22.100Z,90.50
2022-09-23T17:51:50.328Z,90.70
2022-09-23T17:54:18.512Z,90.70
2022-09-23T17:56:46.767Z,90.80
2022-09-23T17:59:15.161Z,91.10
2022-09-23T18:01:44.937Z,90.50
2022-09-23T18:04:13.445Z,90.80
2022-09-23T18:06:41.746Z,91.00
2022-09-23T18:09:10.451Z,91.10
2022-09-23T18:11:40.550Z,91.50
2022-09-23T18:14:13.180Z,91.80
2022-09-23T18:16:42.647Z,92.10
2022-09-23T18:19:15.193Z,92.10
2022-09-23T18:21:45.890Z,91.80
2022-09-23T18:27:02.492Z,92.40
2022-09-23T18:29:31.603Z,92.20
2022-09-23T18:32:01.301Z,92.70
2022-09-23T18:34:30.945Z,93.30
2022-09-23T18:36:59.125Z,92.90
2022-09-23T18:39:27.730Z,93.30
2022-09-23T18:41:56.038Z,93.90
2022-09-23T18:44:24.421Z,93.90
2022-09-23T18:46:52.665Z,94.30
2022-09-23T18:49:38.004Z,94.80
2022-09-23T18:52:07.872Z,95.10
2022-09-23T18:54:36.053Z,95.30
2022-09-23T18:57:04.328Z,95.50
2022-09-23T18:59:33.571Z,95.20
2022-09-23T19:02:02.091Z,95.70
2022-09-23T19:04:30.381Z,95.40
2022-09-23T19:06:58.961Z,95.20
2022-09-23T19:09:28.477Z,95.60
2022-09-23T19:11:57.784Z,95.70
2022-09-23T19:14:26.470Z,95.40
2022-09-23T19:16:54.809Z,96.30
2022-09-23T19:19:23.051Z,95.80
2022-09-23T19:21:51.170Z,96.60
2022-09-23T19:24:20.509Z,96.50
2022-09-23T19:26:50.417Z,96.60
2022-09-23T19:29:21.857Z,97.30
2022-09-23T19:31:51.073Z,97.50
2022-09-23T19:34:23.677Z,97.90
2022-09-23T19:36:52.758Z,97.30
2022-09-23T19:39:22.665Z,96.90
2022-09-23T19:41:54.601Z,97.50
2022-09-23T19:44:25.125Z,97.60
2022-09-23T19:46:56.756Z,98.30
2022-09-23T19:49:25.977Z,97.60
2022-09-23T19:51:55.847Z,98.70
2022-09-23T19:54:28.703Z,98.70
2022-09-23T19:57:00.636Z,99.20
2022-09-23T19:59:28.764Z,99.90
2022-09-23T20:01:56.951Z,99.90
2022-09-23T20:04:26.205Z,99.90
2022-09-23T20:06:54.384Z,99.90
2022-09-23T20:09:22.681Z,99.90
2022-09-23T20:11:51.718Z,99.90
2022-09-23T20:14:22.718Z,99.90
2022-09-23T20:16:53.332Z,99.90
2022-09-23T20:19:21.991Z,99.90
2022-09-23T20:22:10.995Z,99.90
2022-09-23T20:24:39.107Z,99.90
2022-09-23T20:27:09.094Z,99.90
2022-09-23T20:29:39.016Z,99.90
2022-09-23T20:32:07.252Z,99.90
2022-09-23T20:34:35.367Z,99.90
2022-09-23T20:37:05.298Z,99.90
2022-09-23T20:39:36.372Z,99.90
2022-09-23T20:42:06.792Z,99.90
2022-09-23T20:44:34.921Z,99.90
2022-09-23T20:47:04.577Z,99.90
2022-09-23T20:49:34.244Z,99.90
2022-09-23T20:52:03.122Z,99.90
2022-09-23T20:54:31.814Z,99.90
2022-09-23T20:57:00.612Z,99.90
2022-09-23T20:59:28.716Z,99.90
2022-09-23T21:01:58.657Z,99.90
2022-09-23T21:04:28.584Z,99.90
2022-09-23T21:06:58.217Z,99.90
2022-09-23T21:09:27.491Z,99.90
2022-09-23T21:11:55.769Z,99.90
2022-09-23T21:14:24.193Z,99.90
2022-09-23T21:16:52.833Z,99.90
2022-09-23T21:19:20.981Z,99.90
2022-09-23T21:21:50.663Z,99.90
2022-09-23T21:24:53.242Z,99.90
2022-09-23T21:27:07.663Z,99.90
2022-09-23T21:29:35.784Z,99.90
2022-09-23T21:32:04.566Z,99.90
2022-09-23T21:34:35.419Z,99.90
2022-09-23T21:37:05.952Z,99.90
2022-09-23T21:39:34.106Z,99.90
2022-09-23T21:42:02.198Z,99.90
2022-09-23T21:44:30.413Z,99.90
2022-09-23T21:46:59.397Z,99.90
2022-09-23T21:49:27.677Z,99.90
2022-09-23T21:52:00.633Z,99.90
2022-09-23T21:54:31.331Z,99.90
2022-09-23T21:57:00.398Z,99.90
2022-09-23T21:59:29.035Z,99.90
2022-09-23T22:01:57.129Z,99.90
2022-09-23T22:04:25.344Z,99.90
2022-09-23T22:06:54.384Z,99.90
2022-09-23T22:09:23.046Z,99.90
2022-09-23T22:12:09.932Z,99.90
2022-09-23T22:14:39.263Z,99.90
2022-09-23T22:17:10.453Z,99.90
2022-09-23T22:19:46.468Z,99.90
2022-09-23T22:22:16.712Z,99.90
2022-09-23T22:24:46.215Z,99.90
2022-09-23T22:27:18.280Z,99.90
2022-09-23T22:30:03.712Z,99.90
2022-09-23T22:32:46.244Z,99.90
2022-09-23T22:35:18.026Z,99.90
2022-09-23T22:37:47.381Z,99.90
2022-09-23T22:40:17.040Z,99.90
2022-09-23T22:42:46.768Z,99.90
2022-09-23T22:45:15.122Z,99.90
2022-09-23T22:47:46.022Z,99.90
2022-09-23T22:50:15.736Z,99.90
2022-09-23T22:52:44.159Z,99.90
2022-09-23T22:55:12.686Z,99.90
2022-09-23T22:57:40.882Z,99.90
2022-09-23T23:00:12.717Z,99.90
2022-09-23T23:02:42.654Z,99.90
2022-09-23T23:05:10.978Z,99.90
2022-09-23T23:07:39.178Z,99.90
2022-09-23T23:10:10.092Z,99.90
2022-09-23T23:12:39.503Z,99.90
2022-09-23T23:15:12.730Z,99.90
2022-09-23T23:17:45.444Z,99.90
2022-09-23T23:20:13.566Z,99.90
2022-09-23T23:22:41.657Z,99.90
2022-09-23T23:25:10.662Z,99.90
2022-09-23T23:27:39.944Z,99.90
2022-09-23T23:30:11.089Z,99.90
2022-09-23T23:32:39.261Z,99.90
2022-09-23T23:35:08.618Z,99.90
2022-09-23T23:37:36.902Z,99.90
2022-09-23T23:40:05.501Z,99.90
2022-09-23T23:42:34.623Z,99.90
2022-09-23T23:45:02.884Z,99.90
2022-09-23T23:47:32.589Z,99.90
2022-09-23T23:50:00.777Z,99.90
2022-09-23T23:52:28.873Z,99.90
2022-09-23T23:54:56.941Z,99.90
2022-09-23T23:57:25.215Z,99.90
2022-09-23T23:59:53.387Z,99.90
